Time;durP1;ratioP1;P1;durP2;ratioP2;P2;SDS_P1;SDS_P2;PMS_P1;PMS_P2;Temp;Humidity;BMP_temperature;BMP_pressure;BME280_temperature;BME280_humidity;BME280_pressure;Samples;Min_cycle;Max_cycle;Signal;HPM_P1;HPM_P2
2021/01/13 00:00:28;;;;;;;4.00;1.40;;;10.60;99.90;;;9.87;97.56;102067.75;4180572;28;20029;-71
2021/01/13 00:02:29;;;;;;;2.83;1.45;;;10.70;99.90;;;9.76;97.77;102064.28;4179479;28;20037;-72
2021/01/13 00:04:30;;;;;;;3.63;1.30;;;10.70;99.90;;;9.83;97.72;102071.56;4162530;28;20638;-71
2021/01/13 00:06:33;;;;;;;3.05;1.92;;;10.70;99.90;;;9.86;97.12;102060.78;4180299;28;20036;-71
2021/01/13 00:08:33;;;;;;;3.67;1.85;;;10.70;99.90;;;9.89;96.65;102068.47;4179289;28;20108;-71
2021/01/13 00:10:34;;;;;;;4.05;1.50;;;10.70;99.90;;;9.90;96.46;102053.50;4168126;28;20053;-71
2021/01/13 00:12:37;;;;;;;2.35;1.40;;;10.70;99.90;;;9.93;96.85;102066.44;4184985;28;20028;-71
2021/01/13 00:14:38;;;;;;;3.10;2.00;;;10.70;99.90;;;9.79;97.33;102072.78;4186438;28;20085;-71
2021/01/13 00:16:39;;;;;;;6.47;1.58;;;10.60;99.90;;;9.81;97.40;102062.97;4186665;28;20025;-71
2021/01/13 00:18:40;;;;;;;3.08;1.67;;;10.60;99.90;;;9.84;96.68;102062.72;4185166;28;20060;-71
2021/01/13 00:20:41;;;;;;;4.60;1.67;;;10.60;99.90;;;9.85;96.67;102069.69;4186295;28;20032;-72
2021/01/13 00:22:46;;;;;;;3.60;1.75;;;10.60;99.90;;;9.86;96.95;102062.59;4184812;28;20068;-71
2021/01/13 00:24:47;;;;;;;4.18;1.60;;;10.70;99.90;;;9.83;97.32;102061.03;4185135;28;20040;-71
2021/01/13 00:26:49;;;;;;;1.73;1.27;;;10.70;99.90;;;9.91;96.90;102068.34;4185041;28;20029;-71
2021/01/13 00:28:51;;;;;;;3.30;1.40;;;10.70;99.90;;;9.85;96.80;102069.69;4184884;28;20183;-71
2021/01/13 00:30:52;;;;;;;2.20;1.27;;;10.70;99.90;;;9.87;96.22;102059.00;4174367;28;20087;-71
2021/01/13 00:32:53;;;;;;;2.75;1.20;;;10.70;99.90;;;9.91;96.06;102069.19;4178082;28;20029;-71
2021/01/13 00:34:54;;;;;;;2.17;1.40;;;10.70;99.90;;;9.85;96.67;102066.19;4178595;28;20029;-72
2021/01/13 00:36:55;;;;;;;1.85;1.40;;;10.80;99.90;;;9.86;96.43;102073.13;4178394;28;20048;-72
2021/01/13 00:38:56;;;;;;;1.52;1.10;;;10.70;99.90;;;9.77;96.11;102061.50;4177868;28;20097;-71
2021/01/13 00:40:57;;;;;;;1.50;1.17;;;10.70;99.90;;;9.78;95.93;102060.56;4155025;28;20049;-71
2021/01/13 00:42:58;;;;;;;2.15;1.10;;;10.70;99.90;;;9.77;95.94;102058.88;4173334;28;20029;-71
2021/01/13 00:44:59;;;;;;;3.35;1.10;;;10.70;99.90;;;9.71;95.29;102056.72;4173143;28;20078;-71
2021/01/13 00:47:00;;;;;;;1.80;1.15;;;10.60;99.90;;;9.70;95.81;102041.88;4177232;28;20179;-71
2021/01/13 00:49:01;;;;;;;1.88;0.95;;;10.70;99.90;;;9.72;95.67;102061.03;4178537;28;20071;-71
2021/01/13 00:51:03;;;;;;;1.70;1.00;;;10.60;99.90;;;9.74;95.24;102045.09;4179657;28;20032;-71
2021/01/13 00:53:04;;;;;;;1.90;1.13;;;10.60;99.90;;;9.71;95.54;102048.81;4177842;28;20921;-71
2021/01/13 00:55:06;;;;;;;4.35;1.20;;;10.60;99.90;;;9.74;95.03;102048.56;4161977;28;20459;-71
2021/01/13 00:57:08;;;;;;;1.40;1.00;;;10.60;99.90;;;9.72;95.33;102039.94;4161313;28;20029;-71
2021/01/13 00:59:10;;;;;;;1.75;1.10;;;10.60;99.90;;;9.70;95.33;102041.88;4180436;28;20512;-71
2021/01/13 01:01:14;;;;;;;1.60;1.20;;;10.60;99.90;;;9.71;95.15;102040.06;4179383;28;20036;-71
2021/01/13 01:03:15;;;;;;;2.53;1.17;;;10.60;99.90;;;9.74;95.01;102039.81;4183682;28;20033;-71
2021/01/13 01:05:16;;;;;;;1.35;1.17;;;10.60;99.90;;;9.76;95.03;102040.56;4184184;28;20056;-71
2021/01/13 01:07:17;;;;;;;2.42;1.20;;;10.60;99.90;;;9.77;94.93;102048.34;4175045;28;20032;-71
2021/01/13 01:09:18;;;;;;;2.78;1.10;;;10.60;99.90;;;9.75;94.95;102044.13;4168914;28;20026;-72
2021/01/13 01:11:31;;;;;;;1.20;1.10;;;10.50;99.90;;;9.78;94.72;102055.28;4184383;28;20064;-71
2021/01/13 01:13:32;;;;;;;3.63;1.88;;;10.60;99.90;;;9.78;95.21;102046.53;4185598;28;20048;-71
2021/01/13 01:15:37;;;;;;;2.28;1.10;;;10.60;99.90;;;9.76;94.84;102041.41;4184485;28;20029;-72
2021/01/13 01:17:37;;;;;;;2.33;1.08;;;10.60;99.90;;;9.76;95.14;102041.41;4185351;28;20021;-71
2021/01/13 01:19:39;;;;;;;1.65;1.08;;;10.60;99.90;;;9.81;94.90;102054.22;4185569;28;20047;-72
2021/01/13 01:21:41;;;;;;;1.48;1.00;;;10.60;99.90;;;9.83;94.56;102053.13;4183847;28;20028;-71
2021/01/13 01:23:41;;;;;;;2.00;1.10;;;10.60;99.90;;;9.77;94.32;102053.59;4176955;28;20033;-71
2021/01/13 01:25:42;;;;;;;2.38;1.83;;;10.70;99.90;;;9.66;94.88;102043.06;4177951;28;20028;-71
2021/01/13 01:27:43;;;;;;;1.83;0.90;;;10.60;99.90;;;9.66;95.15;102045.69;4177743;28;20025;-71
2021/01/13 01:29:44;;;;;;;1.88;1.05;;;10.60;99.90;;;9.54;95.59;102046.63;4169697;28;20022;-71
2021/01/13 01:31:50;;;;;;;3.42;1.10;;;10.50;99.90;;;9.59;95.02;102047.09;4179125;28;20028;-71
2021/01/13 01:33:50;;;;;;;1.35;1.10;;;10.50;99.90;;;9.64;95.40;102057.31;4155678;28;20022;-71
2021/01/13 01:35:52;;;;;;;1.25;0.90;;;10.40;99.90;;;9.56;95.33;102046.53;4173207;28;20037;-72
2021/01/13 01:37:53;;;;;;;1.83;1.00;;;10.30;99.90;;;9.59;95.00;102055.00;4171093;28;20154;-71
2021/01/13 01:39:53;;;;;;;1.00;0.82;;;10.30;99.90;;;9.61;95.56;102052.28;4173905;28;20106;-71
2021/01/13 01:41:54;;;;;;;1.20;1.10;;;10.30;99.90;;;9.61;95.59;102049.66;4178474;28;20025;-71
2021/01/13 01:43:55;;;;;;;4.07;1.05;;;10.30;99.90;;;9.60;95.30;102059.34;4179261;28;20044;-71
2021/01/13 01:45:56;;;;;;;3.25;1.10;;;10.30;99.90;;;9.61;95.34;102057.53;4179417;28;20053;-71
2021/01/13 01:48:17;;;;;;;1.77;1.30;;;10.40;99.90;;;9.59;95.74;102057.66;4179374;28;20028;-71
2021/01/13 01:50:22;;;;;;;2.63;1.40;;;10.40;99.90;;;9.51;95.70;102059.19;4161586;28;20017;-71
2021/01/13 01:52:23;;;;;;;1.10;1.00;;;10.30;99.90;;;9.52;95.53;102052.97;4180487;28;20031;-71
2021/01/13 01:54:25;;;;;;;1.10;1.00;;;10.40;99.90;;;9.54;95.93;102058.97;4183705;28;20088;-71
2021/01/13 01:56:34;;;;;;;2.83;1.70;;;10.30;99.90;;;9.55;95.66;102053.59;4183885;28;20043;-71
2021/01/13 01:58:36;;;;;;;2.50;1.20;;;10.40;99.90;;;9.59;95.43;102052.38;4168151;28;20124;-71
2021/01/13 02:00:37;;;;;;;2.15;1.50;;;10.40;99.90;;;9.58;95.28;102056.00;4176628;28;20067;-71
2021/01/13 02:02:44;;;;;;;1.48;1.00;;;10.40;99.90;;;9.55;96.29;102069.41;4183872;28;20116;-71
2021/01/13 02:04:47;;;;;;;1.35;1.00;;;10.30;99.90;;;9.60;95.56;102064.59;4185055;28;20447;-71
2021/01/13 02:07:10;;;;;;;1.23;1.02;;;10.30;99.90;;;9.66;95.59;102073.81;4183458;28;20033;-71
2021/01/13 02:09:11;;;;;;;2.75;1.73;;;10.40;99.90;;;9.62;95.58;102075.84;4184535;28;20051;-71
2021/01/13 02:11:20;;;;;;;1.88;1.20;;;10.40;99.90;;;9.66;95.35;102077.31;4183668;28;20052;-71
2021/01/13 02:13:21;;;;;;;2.15;1.10;;;10.40;99.90;;;9.72;95.38;102076.00;4184045;28;20045;-71
2021/01/13 02:15:22;;;;;;;1.27;0.93;;;10.40;99.90;;;9.77;95.24;102069.41;4181528;28;20147;-72
2021/01/13 02:17:36;;;;;;;2.72;1.40;;;10.50;99.90;;;9.67;95.76;102071.09;4177576;28;20574;-71
2021/01/13 02:19:48;;;;;;;2.08;1.02;;;10.60;99.90;;;9.63;95.37;102072.28;4178832;28;20523;-71
2021/01/13 02:21:52;;;;;;;2.28;1.10;;;10.50;99.90;;;9.73;95.34;102078.53;4177448;28;20025;-71
2021/01/13 02:25:04;;;;;;;2.90;1.10;;;10.60;99.90;;;9.76;95.51;102082.72;4177367;28;20108;-71
2021/01/13 02:27:33;;;;;;;1.67;1.00;;;10.50;99.90;;;9.81;94.77;102078.78;4135313;28;20091;-71
2021/01/13 02:29:43;;;;;;;1.40;1.00;;;10.60;99.90;;;9.81;95.02;102084.03;4170683;28;20025;-71
2021/01/13 02:32:05;;;;;;;1.27;1.17;;;10.70;99.90;;;9.80;94.41;102087.63;4171509;28;20039;-72
2021/01/13 02:34:30;;;;;;;1.58;0.90;;;10.60;99.90;;;9.67;95.31;102092.16;4193817;28;20025;-71
2021/01/13 02:36:34;;;;;;;1.10;1.00;;;10.60;99.90;;;9.84;95.02;102091.72;4177467;28;20048;-71
2021/01/13 02:38:37;;;;;;;1.52;1.08;;;10.70;99.90;;;9.83;94.25;102089.19;4178449;28;20021;-71
2021/01/13 02:40:48;;;;;;;2.13;1.00;;;10.60;99.90;;;9.76;94.51;102094.09;4177625;28;20074;-71
2021/01/13 02:43:02;;;;;;;1.38;1.10;;;10.60;99.90;;;9.74;94.35;102096.00;4177378;28;20538;-71
2021/01/13 02:45:11;;;;;;;1.83;1.13;;;10.60;99.90;;;9.67;94.93;102091.31;4194785;28;20449;-71
2021/01/13 02:47:25;;;;;;;1.17;1.00;;;10.50;99.90;;;9.68;94.53;102100.88;4199545;28;20523;-72
2021/01/13 02:49:31;;;;;;;1.10;1.00;;;10.50;99.90;;;9.75;94.37;102092.41;4177218;28;20021;-72
2021/01/13 02:51:37;;;;;;;1.52;0.95;;;10.60;99.90;;;9.67;94.04;102088.69;4184409;28;20052;-71
2021/01/13 02:53:55;;;;;;;0.80;0.80;;;10.60;99.90;;;9.68;94.73;102092.97;4167006;28;20060;-71
2021/01/13 02:55:55;;;;;;;1.10;0.90;;;10.60;99.90;;;9.69;94.90;102089.41;4167567;28;20025;-71
2021/01/13 02:57:57;;;;;;;1.20;0.90;;;10.50;99.90;;;9.68;94.96;102085.09;4183236;28;20100;-71
2021/01/13 02:59:59;;;;;;;1.00;0.90;;;10.60;99.90;;;9.75;95.00;102097.69;4183369;28;20393;-71
2021/01/13 03:02:12;;;;;;;1.05;0.90;;;10.60;99.90;;;9.79;94.92;102099.13;4184826;28;20024;-71
2021/01/13 03:04:13;;;;;;;1.45;1.20;;;10.60;99.90;;;9.64;95.29;102100.31;4183571;28;20087;-71
2021/01/13 03:06:17;;;;;;;1.67;1.00;;;10.50;99.90;;;9.72;95.04;102092.66;4183030;28;20029;-71
2021/01/13 03:08:24;;;;;;;1.92;1.00;;;10.50;99.90;;;9.70;95.25;102097.22;4166824;28;20030;-71
2021/01/13 03:10:27;;;;;;;1.55;0.90;;;10.50;99.90;;;9.76;94.96;102104.66;4183431;28;20033;-71
2021/01/13 03:12:28;;;;;;;1.17;1.08;;;10.60;99.90;;;9.75;94.86;102113.50;4178406;28;20575;-71
2021/01/13 03:14:38;;;;;;;0.90;0.80;;;10.60;99.90;;;9.81;95.18;102107.75;4176619;28;20169;-71
2021/01/13 03:17:21;;;;;;;2.15;0.90;;;10.60;99.90;;;9.62;95.69;102104.00;4177449;28;20452;-71
2021/01/13 03:20:02;;;;;;;1.45;0.98;;;10.60;99.90;;;9.73;95.32;102109.31;4169810;28;20086;-71
2021/01/13 03:22:09;;;;;;;1.23;0.80;;;10.60;99.90;;;9.80;95.32;102110.50;4173995;28;20129;-71
2021/01/13 03:24:21;;;;;;;0.80;0.80;;;10.60;99.90;;;9.80;95.07;102118.41;4173947;28;20039;-72
2021/01/13 03:26:38;;;;;;;0.95;0.90;;;10.60;99.90;;;9.69;95.52;102103.44;4177993;28;20119;-71
2021/01/13 03:28:41;;;;;;;1.35;0.98;;;10.50;99.90;;;9.77;95.11;102119.47;4180175;28;20025;-71
2021/01/13 03:30:47;;;;;;;2.10;1.00;;;10.50;99.90;;;9.71;95.34;102108.56;4180020;28;20021;-71
2021/01/13 03:33:01;;;;;;;1.08;0.98;;;10.50;99.90;;;9.71;95.39;102111.19;4163914;28;20037;-71
2021/01/13 03:35:12;;;;;;;1.42;1.00;;;10.50;99.90;;;9.56;95.90;102102.66;4181165;28;20467;-71
2021/01/13 03:37:25;;;;;;;0.80;0.80;;;10.40;99.90;;;9.55;95.97;102100.16;4179478;28;20037;-71
2021/01/13 03:39:37;;;;;;;1.17;1.00;;;10.40;99.90;;;9.61;95.75;102104.97;4181425;28;20482;-71
2021/01/13 03:41:53;;;;;;;3.55;1.55;;;10.40;99.90;;;9.68;95.54;102120.19;4175417;28;20164;-71
2021/01/13 03:43:56;;;;;;;1.00;0.90;;;10.40;99.90;;;9.59;95.78;102112.97;4187213;28;20547;-72
2021/01/13 03:46:02;;;;;;;1.15;1.00;;;10.40;99.90;;;9.65;95.45;102107.25;4169262;28;20100;-72
2021/01/13 03:48:05;;;;;;;1.80;0.90;;;10.40;99.90;;;9.63;95.48;102108.31;4185680;28;20522;-71
2021/01/13 03:50:23;;;;;;;1.90;0.98;;;10.40;99.90;;;9.74;95.16;102119.72;4185791;28;20032;-71
2021/01/13 03:52:32;;;;;;;1.40;0.88;;;10.50;99.90;;;9.65;95.51;102107.25;4185426;28;20033;-71
2021/01/13 03:54:37;;;;;;;1.73;0.93;;;10.40;99.90;;;9.58;95.99;102105.19;4185996;28;20021;-71
2021/01/13 03:57:00;;;;;;;1.52;1.08;;;10.30;99.90;;;9.57;95.76;102108.78;4185687;28;20029;-71
2021/01/13 03:59:05;;;;;;;1.85;1.10;;;10.30;99.90;;;9.62;95.61;102101.34;4185742;28;20111;-71
2021/01/13 04:01:21;;;;;;;1.55;1.08;;;10.30;99.90;;;9.65;95.73;102116.94;4169175;28;20040;-72
2021/01/13 04:03:30;;;;;;;2.08;1.00;;;10.30;99.90;;;9.59;95.54;102112.97;4187131;28;20205;-72
2021/01/13 04:05:34;;;;;;;1.63;0.90;;;10.30;99.90;;;9.47;95.63;102106.00;4169310;28;20060;-71
2021/01/13 04:07:39;;;;;;;1.00;0.90;;;10.30;99.90;;;9.52;95.98;102117.03;4177834;28;20025;-71
2021/01/13 04:09:41;;;;;;;1.30;0.90;;;10.20;99.90;;;9.53;95.87;102113.44;4172877;28;20025;-71
2021/01/13 04:11:49;;;;;;;1.88;1.02;;;10.20;99.90;;;9.39;97.10;102125.00;4195361;28;20124;-71
2021/01/13 04:13:52;;;;;;;3.13;0.90;;;10.20;99.90;;;9.40;96.78;102117.97;4173286;28;20043;-71
2021/01/13 04:15:59;;;;;;;1.35;1.15;;;10.20;99.90;;;9.50;96.23;102126.84;4172671;28;20036;-71
2021/01/13 04:18:06;;;;;;;1.17;0.90;;;10.30;99.90;;;9.56;95.90;102128.19;4172235;28;20025;-71
2021/01/13 04:20:08;;;;;;;2.08;0.90;;;10.20;99.90;;;9.51;95.90;102111.88;4175395;28;20032;-71
2021/01/13 04:22:15;;;;;;;1.55;1.05;;;10.20;99.90;;;9.45;96.32;102113.19;4179973;28;20028;-72
2021/01/13 04:24:17;;;;;;;0.80;0.80;;;10.20;99.90;;;9.48;95.74;102123.47;4178887;28;20075;-71
2021/01/13 04:26:18;;;;;;;1.38;1.02;;;10.20;99.90;;;9.52;95.71;102110.94;4179960;28;20071;-72
2021/01/13 04:28:19;;;;;;;1.20;0.90;;;10.20;99.90;;;9.47;95.27;102106.00;4178785;28;20448;-71
2021/01/13 04:30:25;;;;;;;1.50;1.10;;;10.20;99.90;;;9.45;95.70;102110.53;4162613;28;20029;-71
2021/01/13 04:32:26;;;;;;;2.28;1.13;;;10.10;99.90;;;9.42;96.06;102110.78;4178820;28;20029;-71
2021/01/13 04:34:27;;;;;;;2.00;1.00;;;10.00;99.90;;;9.31;95.77;102110.75;4180009;28;20025;-71
2021/01/13 04:36:31;;;;;;;0.98;0.88;;;10.00;99.90;;;9.27;96.36;102120.66;4174001;28;20108;-71
2021/01/13 04:38:35;;;;;;;1.40;1.20;;;9.90;99.90;;;9.32;95.91;102121.16;4172990;28;20180;-71
2021/01/13 04:40:40;;;;;;;1.60;0.90;;;9.90;99.90;;;9.31;95.87;102108.13;4184990;28;20033;-72
2021/01/13 04:43:00;;;;;;;1.15;0.90;;;9.90;99.90;;;9.18;96.40;102112.59;4201431;28;20064;-72
2021/01/13 04:45:05;;;;;;;1.55;0.90;;;9.80;99.90;;;9.11;97.68;102116.66;4182381;28;20554;-71
2021/01/13 04:47:10;;;;;;;1.02;0.93;;;9.80;99.90;;;9.13;96.81;102114.75;4201354;28;20039;-71
2021/01/13 04:49:19;;;;;;;2.72;1.02;;;9.80;99.90;;;9.10;97.37;102117.59;4184862;28;20226;-72
2021/01/13 04:51:24;;;;;;;2.45;0.95;;;9.70;99.90;;;9.08;97.02;102111.63;4184597;28;20029;-71
2021/01/13 04:53:33;;;;;;;1.45;0.98;;;9.70;99.90;;;9.03;96.84;102113.72;4184934;28;20071;-71
2021/01/13 04:55:49;;;;;;;1.65;1.20;;;9.70;99.90;;;9.13;96.98;102118.22;4184931;28;20025;-71
2021/01/13 04:57:58;;;;;;;1.52;1.00;;;9.70;99.90;;;9.09;96.72;102123.81;4186071;28;20028;-71
2021/01/13 05:00:11;;;;;;;2.97;1.20;;;9.70;99.90;;;9.09;97.28;102123.81;4184849;28;20033;-71
2021/01/13 05:02:16;;;;;;;2.10;1.10;;;9.70;99.90;;;9.08;97.20;102125.59;4178027;28;20515;-71
2021/01/13 05:04:44;;;;;;;2.17;1.25;;;9.70;99.90;;;9.14;97.07;102121.69;4178428;28;20095;-71
2021/01/13 05:07:10;;;;;;;2.83;1.13;;;9.70;99.90;;;9.13;97.11;102115.59;4179142;28;20029;-71
2021/01/13 05:09:11;;;;;;;2.33;1.45;;;9.80;99.90;;;9.18;96.50;102123.97;4177561;28;20527;-71
2021/01/13 05:11:13;;;;;;;2.63;1.80;;;9.80;99.90;;;9.16;96.97;102127.69;4170645;28;20041;-71
2021/01/13 05:13:19;;;;;;;3.58;2.30;;;9.80;99.90;;;9.13;97.28;102120.84;4171881;28;20437;-71
2021/01/13 05:15:33;;;;;;;3.70;1.73;;;9.80;99.90;;;9.24;97.15;102138.47;4171842;28;20101;-71
2021/01/13 05:17:35;;;;;;;3.63;1.30;;;9.90;99.90;;;9.17;97.98;102132.00;4175579;28;20033;-71
2021/01/13 05:19:45;;;;;;;4.43;2.08;;;9.90;99.90;;;9.17;98.86;102139.91;4178219;28;20054;-71
2021/01/13 05:21:54;;;;;;;3.50;1.52;;;9.90;99.90;;;9.22;98.42;102133.34;4178786;28;20028;-71
2021/01/13 05:23:57;;;;;;;3.42;1.38;;;9.90;99.90;;;9.19;98.63;102125.66;4162234;28;20440;-71
2021/01/13 05:25:58;;;;;;;3.28;1.55;;;10.00;99.90;;;9.12;98.97;102126.22;4178268;28;20033;-71
2021/01/13 05:28:11;;;;;;;7.05;1.50;;;10.00;99.90;;;9.15;99.16;102131.25;4179481;28;20496;-71
2021/01/13 05:30:12;;;;;;;5.13;1.70;;;10.00;99.90;;;9.18;99.28;102133.66;4178141;28;20086;-71
2021/01/13 05:32:14;;;;;;;5.22;1.98;;;9.90;99.90;;;9.15;99.21;102140.00;4184929;28;20024;-71
2021/01/13 05:34:18;;;;;;;3.58;1.65;;;9.90;99.90;;;9.11;99.58;102127.19;4167460;28;20029;-71
2021/01/13 05:36:23;;;;;;;3.78;1.42;;;9.90;99.90;;;9.14;98.99;102135.66;4184010;28;20029;-71
2021/01/13 05:38:52;;;;;;;4.60;1.67;;;9.90;99.90;;;9.14;98.90;102132.22;4184298;28;20032;-71
2021/01/13 05:40:54;;;;;;;5.68;2.47;;;9.90;99.90;;;9.09;98.95;102131.72;4185386;28;20029;-71
2021/01/13 05:42:59;;;;;;;2.33;1.33;;;9.90;99.90;;;9.18;99.21;102134.50;4183956;28;20086;-71
2021/01/13 05:45:01;;;;;;;7.00;2.58;;;9.90;99.90;;;9.22;98.54;102133.34;4184890;28;20108;-71
2021/01/13 05:47:05;;;;;;;3.40;1.90;;;9.90;99.90;;;9.20;98.41;102129.97;4183980;28;20048;-71
2021/01/13 05:49:09;;;;;;;3.92;1.88;;;9.90;99.90;;;9.26;98.53;102139.19;4185326;28;20013;-71
2021/01/13 05:51:10;;;;;;;4.63;1.83;;;10.00;99.90;;;9.11;98.85;102142.97;4183772;28;20032;-71
2021/01/13 05:53:12;;;;;;;3.20;1.50;;;10.00;99.90;;;9.01;99.43;102141.97;4185125;28;20029;-71
2021/01/13 05:55:16;;;;;;;3.10;1.60;;;9.90;99.90;;;9.19;98.80;102140.63;4184126;28;20459;-71
2021/01/13 05:57:20;;;;;;;3.17;1.83;;;9.90;99.90;;;9.17;98.70;102145.16;4184039;28;20036;-72
2021/01/13 05:59:29;;;;;;;2.88;1.50;;;9.90;99.90;;;9.22;98.55;102128.06;4183990;28;20033;-71
2021/01/13 06:02:07;;;;;;;4.80;1.83;;;9.90;99.90;;;9.27;98.11;102143.53;4178593;28;20112;-71
2021/01/13 06:04:10;;;;;;;2.22;1.85;;;10.00;99.90;;;9.24;98.12;102143.75;4169863;28;20051;-71
2021/01/13 06:06:11;;;;;;;5.47;1.85;;;9.90;99.90;;;9.26;97.20;102142.66;4171584;28;20037;-71
2021/01/13 06:08:13;;;;;;;6.00;1.95;;;10.00;99.90;;;9.26;97.27;102141.81;4172291;28;20082;-71
2021/01/13 06:10:17;;;;;;;2.60;1.60;;;9.90;99.90;;;9.26;97.53;102142.66;4175385;28;20121;-71
2021/01/13 06:12:22;;;;;;;3.00;1.70;;;9.90;99.90;;;9.28;97.39;102140.78;4177717;28;20071;-71
2021/01/13 06:14:27;;;;;;;3.53;1.52;;;9.90;99.90;;;9.27;97.27;102143.53;4178439;28;20112;-72
2021/01/13 06:16:29;;;;;;;5.35;2.03;;;9.90;99.90;;;9.23;97.05;102157.84;4177795;28;20440;-71
2021/01/13 06:18:34;;;;;;;4.40;1.98;;;9.80;99.90;;;9.17;97.35;102153.88;4178618;28;20574;-71
2021/01/13 06:20:35;;;;;;;4.85;2.53;;;9.80;99.90;;;9.14;97.71;102163.81;4177726;28;20064;-71
2021/01/13 06:22:36;;;;;;;7.97;2.08;;;9.70;99.90;;;9.09;98.02;102164.13;4178390;28;20025;-71
2021/01/13 06:24:38;;;;;;;4.88;1.73;;;9.70;99.90;;;9.07;98.25;102152.88;4175283;28;20037;-71
2021/01/13 06:27:21;;;;;;;3.67;2.70;;;9.70;99.90;;;9.02;98.30;102151.53;4171919;28;20028;-71
2021/01/13 06:30:00;;;;;;;6.05;1.95;;;9.60;99.90;;;9.02;98.32;102149.72;4171869;28;20051;-71
2021/01/13 06:32:11;;;;;;;3.53;1.60;;;9.60;99.90;;;9.05;98.09;102153.97;4163092;28;20029;-71
2021/01/13 06:34:27;;;;;;;4.43;1.63;;;9.60;99.90;;;9.06;97.57;102151.19;4170329;28;20037;-71
2021/01/13 06:36:49;;;;;;;3.85;1.48;;;9.60;99.90;;;8.96;97.48;102147.53;4183359;28;20021;-71
2021/01/13 06:39:05;;;;;;;9.90;2.25;;;9.70;99.90;;;9.04;97.23;102154.91;4167845;28;20044;-72
2021/01/13 06:41:06;;;;;;;4.68;1.85;;;9.60;99.90;;;8.99;97.01;102160.47;4183572;28;20104;-71
2021/01/13 06:43:14;;;;;;;3.25;1.65;;;9.70;99.90;;;8.99;97.62;102170.19;4183360;28;20519;-71
2021/01/13 06:45:32;;;;;;;3.08;1.80;;;9.60;99.90;;;9.00;97.66;102156.91;4183369;28;20029;-71
2021/01/13 06:47:33;;;;;;;3.28;1.92;;;9.60;99.90;;;9.01;97.27;102165.66;4184547;28;20103;-72
2021/01/13 06:49:34;;;;;;;2.67;1.30;;;9.60;99.90;;;9.04;96.39;102168.06;4183324;28;20459;-71
2021/01/13 06:51:36;;;;;;;2.42;1.80;;;9.60;99.90;;;8.96;97.17;102167.78;4184206;28;20029;-71
2021/01/13 06:53:37;;;;;;;3.38;1.40;;;9.50;99.90;;;8.93;97.32;102162.75;4166767;28;20024;-72
2021/01/13 06:55:42;;;;;;;3.70;1.58;;;9.50;99.90;;;8.94;96.70;102156.50;4185274;28;20112;-71
2021/01/13 06:57:43;;;;;;;4.28;1.50;;;9.50;99.90;;;8.90;97.03;102151.47;4186423;28;20092;-71
2021/01/13 06:59:43;;;;;;;5.13;1.55;;;9.50;99.90;;;8.97;97.21;102169.44;4186360;28;20021;-71
2021/01/13 07:01:59;;;;;;;3.63;1.90;;;9.60;99.90;;;9.02;96.72;102159.44;4178431;28;20695;-71
2021/01/13 07:04:02;;;;;;;5.07;1.52;;;9.60;99.90;;;8.92;97.15;102161.91;4176325;28;20029;-71
2021/01/13 07:06:10;;;;;;;4.50;2.10;;;9.60;99.90;;;8.87;97.47;102159.56;4174427;28;20029;-71
2021/01/13 07:08:11;;;;;;;2.72;2.20;;;9.50;99.90;;;8.87;97.13;102162.22;4192465;28;20111;-71
2021/01/13 07:10:14;;;;;;;5.32;2.00;;;9.50;99.90;;;8.86;97.18;102165.81;4181813;28;20029;-71
2021/01/13 07:12:19;;;;;;;7.00;2.40;;;9.50;99.90;;;8.80;96.98;102157.50;4182322;28;20033;-71
2021/01/13 07:14:20;;;;;;;6.05;2.63;;;9.40;99.90;;;8.80;97.45;102171.50;4181049;28;20021;-71
2021/01/13 07:16:29;;;;;;;5.32;1.83;;;9.50;99.90;;;8.80;97.37;102166.25;4164584;28;20025;-72
2021/01/13 07:18:32;;;;;;;3.53;2.42;;;9.50;99.90;;;8.88;96.89;102163.91;4197227;28;20097;-71
2021/01/13 07:20:46;;;;;;;5.50;2.40;;;9.50;99.90;;;8.82;97.63;102168.75;4180045;28;20052;-71
2021/01/13 07:22:47;;;;;;;3.80;2.85;;;9.50;99.90;;;8.82;97.50;102177.50;4180809;28;20036;-71
2021/01/13 07:24:49;;;;;;;6.60;2.78;;;9.50;99.90;;;8.72;98.10;102173.84;4175515;28;20463;-71
2021/01/13 07:26:51;;;;;;;4.43;2.90;;;9.50;99.90;;;8.83;98.04;102175.72;4174421;28;20101;-72
2021/01/13 07:28:52;;;;;;;6.40;3.13;;;9.40;99.90;;;8.80;98.30;102165.41;4174500;28;20126;-72
2021/01/13 07:30:54;;;;;;;6.03;3.08;;;9.40;99.90;;;8.75;98.48;102175.44;4175964;28;20100;-72
2021/01/13 07:32:59;;;;;;;7.93;3.83;;;9.40;99.90;;;8.62;98.72;102169.34;4185667;28;20036;-71
2021/01/13 07:35:08;;;;;;;7.13;2.45;;;9.30;99.90;;;8.67;99.38;102173.31;4185785;28;20064;-72
2021/01/13 07:37:25;;;;;;;5.80;3.83;;;9.30;99.90;;;8.66;100.00;102182.16;4169067;28;20037;-72
2021/01/13 07:40:10;;;;;;;6.97;2.92;;;9.20;99.90;;;8.57;99.83;102179.34;4169522;28;20026;-72
2021/01/13 07:42:35;;;;;;;4.90;2.88;;;9.20;99.90;;;8.53;100.00;102181.34;4173787;28;20450;-72
2021/01/13 07:44:53;;;;;;;4.25;2.25;;;9.10;99.90;;;8.48;100.00;102194.00;4186095;28;20109;-71
2021/01/13 07:47:03;;;;;;;4.55;2.45;;;9.00;99.90;;;8.46;100.00;102182.72;4185300;28;20033;-72
2021/01/13 07:49:19;;;;;;;6.93;2.92;;;9.00;99.90;;;8.57;100.00;102197.78;4185663;28;20104;-71
2021/01/13 07:51:26;;;;;;;3.55;2.45;;;9.10;99.90;;;8.47;100.00;102192.31;4202006;28;20021;-70
2021/01/13 07:53:29;;;;;;;4.85;1.95;;;9.10;99.90;;;8.45;100.00;102196.84;4180744;28;20485;-71
2021/01/13 07:55:31;;;;;;;3.47;2.28;;;9.10;99.90;;;8.53;100.00;102191.88;4184839;28;20405;-71
2021/01/13 07:57:48;;;;;;;3.55;1.77;;;9.10;99.90;;;8.54;100.00;102204.06;4183028;28;20421;-70
2021/01/13 08:00:07;;;;;;;6.32;3.22;;;9.10;99.90;;;8.52;100.00;102207.75;4184962;28;20049;-70
2021/01/13 08:02:45;;;;;;;4.38;2.50;;;9.10;99.90;;;8.60;99.50;102219.41;4179276;28;20048;-69
2021/01/13 08:05:16;;;;;;;3.78;1.73;;;9.10;99.90;;;8.52;100.00;102208.59;4180681;28;20029;-69
2021/01/13 08:07:35;;;;;;;5.55;2.33;;;9.10;99.90;;;8.53;100.00;102220.81;4194820;28;20554;-70
2021/01/13 08:09:51;;;;;;;4.53;2.40;;;9.10;99.90;;;8.46;100.00;102214.28;4152854;28;20121;-70
2021/01/13 08:12:09;;;;;;;7.13;3.17;;;9.10;99.90;;;8.63;99.77;102227.09;4179166;28;20045;-70
2021/01/13 08:14:43;;;;;;;13.05;6.13;;;9.20;99.90;;;8.66;100.00;102226.06;4180614;28;20484;-72
2021/01/13 08:17:16;;;;;;;16.55;8.48;;;9.20;99.90;;;8.72;99.44;102223.81;4176362;28;20036;-72
2021/01/13 08:19:49;;;;;;;18.48;11.07;;;9.20;99.90;;;8.70;99.14;102230.97;4175007;28;20036;-71
2021/01/13 08:21:56;;;;;;;25.02;15.93;;;9.20;99.90;;;8.51;99.56;102220.06;4173546;28;20104;-71
2021/01/13 08:24:06;;;;;;;26.30;17.42;;;9.20;99.90;;;8.56;99.58;102223.22;4176954;28;20051;-70
2021/01/13 08:26:09;;;;;;;23.35;13.30;;;9.20;99.90;;;8.64;99.35;102222.66;4179813;28;20029;-70
2021/01/13 08:28:13;;;;;;;22.52;14.63;;;9.20;99.90;;;8.63;100.00;102227.09;4178990;28;20541;-70
2021/01/13 08:30:16;;;;;;;;;;;9.30;99.90;;;8.67;100.00;102233.81;4179834;28;20108;-70
2021/01/13 08:32:20;;;;;;;10.20;6.25;;;9.30;99.90;;;8.66;100.00;102240.03;4168177;28;19940;-70
2021/01/13 08:34:22;;;;;;;;;;;9.30;99.90;;;8.62;100.00;102237.72;4184206;28;20025;-69
2021/01/13 08:36:24;;;;;;;7.75;3.90;;;9.30;99.90;;;8.72;99.43;102236.16;4180669;28;19909;-69
2021/01/13 08:38:27;;;;;;;6.88;3.97;;;9.40;99.90;;;8.79;99.68;102240.88;4185423;28;20056;-69
2021/01/13 08:40:28;;;;;;;8.85;3.88;;;9.50;99.90;;;8.85;99.27;102240.44;4184194;28;20024;-70
2021/01/13 08:42:30;;;;;;;10.75;5.30;;;9.50;99.90;;;8.93;98.87;102233.78;4200606;28;20487;-69
2021/01/13 08:44:39;;;;;;;13.00;7.28;;;9.60;99.90;;;8.95;98.23;102242.41;4195938;28;20046;-70
2021/01/13 08:47:02;;;;;;;14.90;8.52;;;9.70;99.90;;;9.02;98.45;102248.94;4198512;28;20037;-69
2021/01/13 08:49:06;;;;;;;25.40;15.38;;;9.70;99.90;;;8.92;98.62;102242.63;4179757;28;20025;-69
2021/01/13 08:51:13;;;;;;;66.93;39.20;;;9.70;99.90;;;8.89;98.84;102252.44;4180516;28;20063;-69
2021/01/13 08:53:24;;;;;;;83.03;47.22;;;9.80;99.90;;;8.82;99.37;102248.53;4200377;28;20056;-68
2021/01/13 08:55:26;;;;;;;61.88;36.92;;;9.70;99.90;;;8.94;98.97;102249.47;4183735;28;20408;-69
2021/01/13 08:57:52;;;;;;;64.05;37.70;;;9.80;99.90;;;8.99;98.60;102257.03;4184346;28;20032;-68